sensor_id;sensor_type;location;lat;lon;timestamp;temperature;humidity
29453;DHT22;16424;50.956;5.320;2023-06-04T00:01:06;15.20;92.50
29453;DHT22;16424;50.956;5.320;2023-06-04T00:03:32;15.20;92.40
29453;DHT22;16424;50.956;5.320;2023-06-04T00:05:58;15.20;92.50
29453;DHT22;16424;50.956;5.320;2023-06-04T00:08:23;15.10;92.90
29453;DHT22;16424;50.956;5.320;2023-06-04T00:10:49;15.00;92.90
29453;DHT22;16424;50.956;5.320;2023-06-04T00:13:14;15.00;92.90
29453;DHT22;16424;50.956;5.320;2023-06-04T00:15:40;15.00;92.80
29453;DHT22;16424;50.956;5.320;2023-06-04T00:18:07;15.00;92.90
29453;DHT22;16424;50.956;5.320;2023-06-04T00:20:32;15.00;92.90
29453;DHT22;16424;50.956;5.320;2023-06-04T00:22:58;15.00;92.80
29453;DHT22;16424;50.956;5.320;2023-06-04T00:25:24;15.00;92.90
29453;DHT22;16424;50.956;5.320;2023-06-04T00:27:49;15.00;93.00
29453;DHT22;16424;50.956;5.320;2023-06-04T00:30:15;15.00;93.20
29453;DHT22;16424;50.956;5.320;2023-06-04T00:32:41;14.90;93.10
29453;DHT22;16424;50.956;5.320;2023-06-04T00:35:07;14.90;93.00
29453;DHT22;16424;50.956;5.320;2023-06-04T00:37:32;14.80;93.00
29453;DHT22;16424;50.956;5.320;2023-06-04T00:39:59;14.80;93.00
29453;DHT22;16424;50.956;5.320;2023-06-04T00:42:25;14.80;93.10
29453;DHT22;16424;50.956;5.320;2023-06-04T00:44:50;14.70;93.20
29453;DHT22;16424;50.956;5.320;2023-06-04T00:47:17;14.70;93.20
29453;DHT22;16424;50.956;5.320;2023-06-04T00:49:43;14.60;93.20
29453;DHT22;16424;50.956;5.320;2023-06-04T00:52:10;14.60;93.30
29453;DHT22;16424;50.956;5.320;2023-06-04T00:54:37;14.60;93.30
29453;DHT22;16424;50.956;5.320;2023-06-04T00:57:04;14.60;93.40
29453;DHT22;16424;50.956;5.320;2023-06-04T00:59:32;14.60;93.30
29453;DHT22;16424;50.956;5.320;2023-06-04T01:02:14;14.60;93.30
29453;DHT22;16424;50.956;5.320;2023-06-04T01:04:55;14.60;93.20
29453;DHT22;16424;50.956;5.320;2023-06-04T01:07:25;14.60;93.30
29453;DHT22;16424;50.956;5.320;2023-06-04T01:09:52;14.50;93.60
29453;DHT22;16424;50.956;5.320;2023-06-04T01:12:18;14.40;94.00
29453;DHT22;16424;50.956;5.320;2023-06-04T01:14:44;14.30;94.10
29453;DHT22;16424;50.956;5.320;2023-06-04T01:17:15;14.30;94.00
29453;DHT22;16424;50.956;5.320;2023-06-04T01:20:07;14.30;93.90
29453;DHT22;16424;50.956;5.320;2023-06-04T01:27:58;14.20;94.10
29453;DHT22;16424;50.956;5.320;2023-06-04T01:30:30;14.20;93.90
29453;DHT22;16424;50.956;5.320;2023-06-04T01:32:57;14.20;93.90
29453;DHT22;16424;50.956;5.320;2023-06-04T01:35:25;14.20;94.00
29453;DHT22;16424;50.956;5.320;2023-06-04T01:37:51;14.10;94.10
29453;DHT22;16424;50.956;5.320;2023-06-04T01:40:17;14.10;94.00
29453;DHT22;16424;50.956;5.320;2023-06-04T01:42:43;14.20;93.90
29453;DHT22;16424;50.956;5.320;2023-06-04T01:45:10;14.20;93.90
29453;DHT22;16424;50.956;5.320;2023-06-04T01:47:35;14.10;93.90
29453;DHT22;16424;50.956;5.320;2023-06-04T01:50:05;14.10;94.10
29453;DHT22;16424;50.956;5.320;2023-06-04T01:52:35;14.10;94.20
29453;DHT22;16424;50.956;5.320;2023-06-04T01:55:00;14.10;94.20
29453;DHT22;16424;50.956;5.320;2023-06-04T01:57:27;14.10;94.30
29453;DHT22;16424;50.956;5.320;2023-06-04T01:59:53;14.10;94.50
29453;DHT22;16424;50.956;5.320;2023-06-04T02:02:18;14.00;94.50
29453;DHT22;16424;50.956;5.320;2023-06-04T02:04:44;14.00;94.90
29453;DHT22;16424;50.956;5.320;2023-06-04T02:07:10;13.90;94.80
29453;DHT22;16424;50.956;5.320;2023-06-04T02:09:37;13.90;94.90
29453;DHT22;16424;50.956;5.320;2023-06-04T02:12:03;13.90;94.90
29453;DHT22;16424;50.956;5.320;2023-06-04T02:14:29;13.90;95.10
29453;DHT22;16424;50.956;5.320;2023-06-04T02:16:55;13.90;95.20
29453;DHT22;16424;50.956;5.320;2023-06-04T02:19:26;13.80;95.50
29453;DHT22;16424;50.956;5.320;2023-06-04T02:21:53;13.70;95.80
29453;DHT22;16424;50.956;5.320;2023-06-04T02:24:19;13.70;95.70
29453;DHT22;16424;50.956;5.320;2023-06-04T02:26:45;13.70;95.90
29453;DHT22;16424;50.956;5.320;2023-06-04T02:29:11;13.60;96.20
29453;DHT22;16424;50.956;5.320;2023-06-04T02:31:37;13.60;96.20
29453;DHT22;16424;50.956;5.320;2023-06-04T02:34:03;13.50;96.40
29453;DHT22;16424;50.956;5.320;2023-06-04T02:36:29;13.50;96.50
29453;DHT22;16424;50.956;5.320;2023-06-04T02:38:55;13.50;96.80
29453;DHT22;16424;50.956;5.320;2023-06-04T02:41:21;13.30;97.10
29453;DHT22;16424;50.956;5.320;2023-06-04T02:43:47;13.20;97.40
29453;DHT22;16424;50.956;5.320;2023-06-04T02:46:13;13.20;97.60
29453;DHT22;16424;50.956;5.320;2023-06-04T02:48:39;13.20;97.80
29453;DHT22;16424;50.956;5.320;2023-06-04T02:51:04;13.20;98.10
29453;DHT22;16424;50.956;5.320;2023-06-04T02:53:30;13.20;98.30
29453;DHT22;16424;50.956;5.320;2023-06-04T02:55:56;13.20;98.50
29453;DHT22;16424;50.956;5.320;2023-06-04T02:58:22;13.20;98.70
29453;DHT22;16424;50.956;5.320;2023-06-04T03:00:52;13.20;98.90
29453;DHT22;16424;50.956;5.320;2023-06-04T03:03:18;13.10;99.40
29453;DHT22;16424;50.956;5.320;2023-06-04T03:05:43;13.00;99.70
29453;DHT22;16424;50.956;5.320;2023-06-04T03:08:09;13.10;99.90
29453;DHT22;16424;50.956;5.320;2023-06-04T03:10:35;13.00;99.90
29453;DHT22;16424;50.956;5.320;2023-06-04T03:13:00;13.00;99.90
29453;DHT22;16424;50.956;5.320;2023-06-04T03:15:26;13.00;99.90
29453;DHT22;16424;50.956;5.320;2023-06-04T03:17:52;12.90;99.90
29453;DHT22;16424;50.956;5.320;2023-06-04T03:20:17;12.90;99.90
29453;DHT22;16424;50.956;5.320;2023-06-04T03:22:43;13.00;99.90
29453;DHT22;16424;50.956;5.320;2023-06-04T03:25:09;13.00;99.90
29453;DHT22;16424;50.956;5.320;2023-06-04T03:27:35;13.00;99.90
29453;DHT22;16424;50.956;5.320;2023-06-04T03:30:01;13.00;99.90
29453;DHT22;16424;50.956;5.320;2023-06-04T03:32:27;12.90;99.90
29453;DHT22;16424;50.956;5.320;2023-06-04T03:34:53;12.80;99.90
29453;DHT22;16424;50.956;5.320;2023-06-04T03:37:18;12.70;99.90
29453;DHT22;16424;50.956;5.320;2023-06-04T03:39:44;12.80;99.90
29453;DHT22;16424;50.956;5.320;2023-06-04T03:42:10;12.70;99.90
29453;DHT22;16424;50.956;5.320;2023-06-04T03:44:35;12.70;99.90
29453;DHT22;16424;50.956;5.320;2023-06-04T03:47:01;12.70;99.90
29453;DHT22;16424;50.956;5.320;2023-06-04T03:49:27;12.60;99.90
29453;DHT22;16424;50.956;5.320;2023-06-04T03:51:52;12.70;99.90
29453;DHT22;16424;50.956;5.320;2023-06-04T03:54:18;12.70;99.90
29453;DHT22;16424;50.956;5.320;2023-06-04T03:56:45;12.70;99.90
29453;DHT22;16424;50.956;5.320;2023-06-04T03:59:10;12.60;99.90
29453;DHT22;16424;50.956;5.320;2023-06-04T04:01:36;12.60;99.90
29453;DHT22;16424;50.956;5.320;2023-06-04T04:04:02;12.60;99.90
29453;DHT22;16424;50.956;5.320;2023-06-04T04:06:27;12.50;99.90
29453;DHT22;16424;50.956;5.320;2023-06-04T04:08:53;12.50;99.90
29453;DHT22;16424;50.956;5.320;2023-06-04T04:11:19;12.50;99.90
29453;DHT22;16424;50.956;5.320;2023-06-04T04:13:45;12.50;99.90
29453;DHT22;16424;50.956;5.320;2023-06-04T04:16:12;12.50;99.90
29453;DHT22;16424;50.956;5.320;2023-06-04T04:18:37;12.60;99.90
29453;DHT22;16424;50.956;5.320;2023-06-04T04:21:04;12.60;99.90
29453;DHT22;16424;50.956;5.320;2023-06-04T04:23:30;12.60;99.90
29453;DHT22;16424;50.956;5.320;2023-06-04T04:25:58;12.60;99.90
29453;DHT22;16424;50.956;5.320;2023-06-04T04:28:27;12.50;99.90
29453;DHT22;16424;50.956;5.320;2023-06-04T04:30:57;12.60;99.90
29453;DHT22;16424;50.956;5.320;2023-06-04T04:33:23;12.70;99.90
29453;DHT22;16424;50.956;5.320;2023-06-04T04:35:52;12.90;99.90
29453;DHT22;16424;50.956;5.320;2023-06-04T04:38:21;12.90;99.90
29453;DHT22;16424;50.956;5.320;2023-06-04T04:40:49;12.90;99.90
29453;DHT22;16424;50.956;5.320;2023-06-04T04:43:27;12.90;99.90
29453;DHT22;16424;50.956;5.320;2023-06-04T04:45:53;12.90;99.90
29453;DHT22;16424;50.956;5.320;2023-06-04T04:48:19;13.10;99.90
29453;DHT22;16424;50.956;5.320;2023-06-04T04:50:44;13.00;99.90
29453;DHT22;16424;50.956;5.320;2023-06-04T04:53:10;13.10;99.90
29453;DHT22;16424;50.956;5.320;2023-06-04T04:55:36;13.10;99.90
29453;DHT22;16424;50.956;5.320;2023-06-04T04:58:01;13.10;99.90
29453;DHT22;16424;50.956;5.320;2023-06-04T05:00:28;13.10;99.90
29453;DHT22;16424;50.956;5.320;2023-06-04T05:02:54;13.10;99.90
29453;DHT22;16424;50.956;5.320;2023-06-04T05:05:19;13.20;99.90
29453;DHT22;16424;50.956;5.320;2023-06-04T05:07:45;13.10;99.90
29453;DHT22;16424;50.956;5.320;2023-06-04T05:10:10;13.20;99.90
29453;DHT22;16424;50.956;5.320;2023-06-04T05:12:36;13.30;99.90
29453;DHT22;16424;50.956;5.320;2023-06-04T05:15:02;13.40;99.90
29453;DHT22;16424;50.956;5.320;2023-06-04T05:17:29;13.60;99.90
29453;DHT22;16424;50.956;5.320;2023-06-04T05:19:57;13.80;99.90
29453;DHT22;16424;50.956;5.320;2023-06-04T05:22:28;13.80;99.90
29453;DHT22;16424;50.956;5.320;2023-06-04T05:24:54;13.80;99.90
29453;DHT22;16424;50.956;5.320;2023-06-04T05:27:21;13.90;99.90
29453;DHT22;16424;50.956;5.320;2023-06-04T05:29:47;14.20;99.90
29453;DHT22;16424;50.956;5.320;2023-06-04T05:32:13;14.40;99.90
29453;DHT22;16424;50.956;5.320;2023-06-04T05:34:39;14.70;99.90
29453;DHT22;16424;50.956;5.320;2023-06-04T05:37:05;15.40;99.90
29453;DHT22;16424;50.956;5.320;2023-06-04T05:39:33;16.30;99.90
29453;DHT22;16424;50.956;5.320;2023-06-04T05:42:00;17.00;99.90
29453;DHT22;16424;50.956;5.320;2023-06-04T05:44:25;17.50;99.90
29453;DHT22;16424;50.956;5.320;2023-06-04T05:46:51;18.10;99.90
29453;DHT22;16424;50.956;5.320;2023-06-04T05:49:17;18.60;99.90
29453;DHT22;16424;50.956;5.320;2023-06-04T05:51:43;18.70;99.90
29453;DHT22;16424;50.956;5.320;2023-06-04T05:54:08;19.30;99.20
29453;DHT22;16424;50.956;5.320;2023-06-04T05:56:34;19.50;98.40
29453;DHT22;16424;50.956;5.320;2023-06-04T05:59:00;19.10;98.70
29453;DHT22;16424;50.956;5.320;2023-06-04T06:01:26;19.20;98.10
29453;DHT22;16424;50.956;5.320;2023-06-04T06:03:51;19.30;97.80
29453;DHT22;16424;50.956;5.320;2023-06-04T06:06:17;19.10;98.70
29453;DHT22;16424;50.956;5.320;2023-06-04T06:08:43;19.60;97.40
29453;DHT22;16424;50.956;5.320;2023-06-04T06:11:09;20.30;97.10
29453;DHT22;16424;50.956;5.320;2023-06-04T06:13:35;20.60;95.30
29453;DHT22;16424;50.956;5.320;2023-06-04T06:16:00;20.70;95.00
29453;DHT22;16424;50.956;5.320;2023-06-04T06:18:26;20.60;95.50
29453;DHT22;16424;50.956;5.320;2023-06-04T06:20:52;21.50;94.70
29453;DHT22;16424;50.956;5.320;2023-06-04T06:23:17;21.40;93.50
29453;DHT22;16424;50.956;5.320;2023-06-04T06:25:44;21.20;93.90
29453;DHT22;16424;50.956;5.320;2023-06-04T06:28:11;21.20;93.60
29453;DHT22;16424;50.956;5.320;2023-06-04T06:30:37;21.40;93.70
29453;DHT22;16424;50.956;5.320;2023-06-04T06:33:02;21.60;93.10
29453;DHT22;16424;50.956;5.320;2023-06-04T06:35:28;21.30;93.60
29453;DHT22;16424;50.956;5.320;2023-06-04T06:37:54;22.10;93.60
29453;DHT22;16424;50.956;5.320;2023-06-04T06:40:20;23.20;91.60
29453;DHT22;16424;50.956;5.320;2023-06-04T06:42:49;22.60;91.30
29453;DHT22;16424;50.956;5.320;2023-06-04T06:45:17;22.60;91.80
29453;DHT22;16424;50.956;5.320;2023-06-04T06:47:44;22.70;91.60
29453;DHT22;16424;50.956;5.320;2023-06-04T06:50:10;23.20;90.70
29453;DHT22;16424;50.956;5.320;2023-06-04T06:52:36;23.50;90.30
29453;DHT22;16424;50.956;5.320;2023-06-04T06:55:03;23.30;90.20
29453;DHT22;16424;50.956;5.320;2023-06-04T06:57:29;23.50;90.20
29453;DHT22;16424;50.956;5.320;2023-06-04T06:59:55;24.20;90.20
29453;DHT22;16424;50.956;5.320;2023-06-04T07:02:21;24.20;89.30
29453;DHT22;16424;50.956;5.320;2023-06-04T07:04:47;24.30;88.70
29453;DHT22;16424;50.956;5.320;2023-06-04T07:07:13;25.20;88.40
29453;DHT22;16424;50.956;5.320;2023-06-04T07:09:38;24.80;86.30
29453;DHT22;16424;50.956;5.320;2023-06-04T07:12:05;24.70;86.50
29453;DHT22;16424;50.956;5.320;2023-06-04T07:14:32;24.90;86.30
29453;DHT22;16424;50.956;5.320;2023-06-04T07:16:57;24.00;86.60
29453;DHT22;16424;50.956;5.320;2023-06-04T07:19:23;24.00;88.30
29453;DHT22;16424;50.956;5.320;2023-06-04T07:21:50;23.90;88.10
29453;DHT22;16424;50.956;5.320;2023-06-04T07:24:16;24.60;86.20
29453;DHT22;16424;50.956;5.320;2023-06-04T07:26:41;25.50;84.60
29453;DHT22;16424;50.956;5.320;2023-06-04T07:29:07;26.00;83.80
29453;DHT22;16424;50.956;5.320;2023-06-04T07:31:33;25.60;84.90
29453;DHT22;16424;50.956;5.320;2023-06-04T07:33:58;26.60;84.40
29453;DHT22;16424;50.956;5.320;2023-06-04T07:36:24;26.80;82.70
29453;DHT22;16424;50.956;5.320;2023-06-04T07:38:50;27.20;82.30
29453;DHT22;16424;50.956;5.320;2023-06-04T07:41:15;27.40;81.00
29453;DHT22;16424;50.956;5.320;2023-06-04T07:43:42;26.90;80.20
29453;DHT22;16424;50.956;5.320;2023-06-04T07:46:08;27.10;80.90
29453;DHT22;16424;50.956;5.320;2023-06-04T07:48:35;27.60;81.10
29453;DHT22;16424;50.956;5.320;2023-06-04T07:51:01;27.60;78.90
29453;DHT22;16424;50.956;5.320;2023-06-04T07:53:28;27.20;81.20
29453;DHT22;16424;50.956;5.320;2023-06-04T07:55:54;27.00;80.80
29453;DHT22;16424;50.956;5.320;2023-06-04T07:58:20;27.40;80.70
29453;DHT22;16424;50.956;5.320;2023-06-04T08:00:46;26.00;80.10
29453;DHT22;16424;50.956;5.320;2023-06-04T08:03:12;26.00;81.60
29453;DHT22;16424;50.956;5.320;2023-06-04T08:05:37;27.20;80.50
29453;DHT22;16424;50.956;5.320;2023-06-04T08:08:03;27.60;78.60
29453;DHT22;16424;50.956;5.320;2023-06-04T08:10:30;27.50;79.50
29453;DHT22;16424;50.956;5.320;2023-06-04T08:12:56;26.40;79.00
29453;DHT22;16424;50.956;5.320;2023-06-04T08:15:22;26.30;79.40
29453;DHT22;16424;50.956;5.320;2023-06-04T08:17:48;25.90;79.10
29453;DHT22;16424;50.956;5.320;2023-06-04T08:20:14;25.90;77.80
29453;DHT22;16424;50.956;5.320;2023-06-04T08:22:39;25.70;77.90
29453;DHT22;16424;50.956;5.320;2023-06-04T08:25:06;24.80;78.50
29453;DHT22;16424;50.956;5.320;2023-06-04T08:27:32;24.80;80.20
29453;DHT22;16424;50.956;5.320;2023-06-04T08:29:58;25.80;79.60
29453;DHT22;16424;50.956;5.320;2023-06-04T08:32:24;26.50;79.10
29453;DHT22;16424;50.956;5.320;2023-06-04T08:34:50;26.60;78.60
29453;DHT22;16424;50.956;5.320;2023-06-04T08:37:17;27.20;78.10
29453;DHT22;16424;50.956;5.320;2023-06-04T08:39:43;28.00;76.20
29453;DHT22;16424;50.956;5.320;2023-06-04T08:42:26;27.90;75.10
29453;DHT22;16424;50.956;5.320;2023-06-04T08:44:53;27.60;74.70
29453;DHT22;16424;50.956;5.320;2023-06-04T08:47:19;26.30;74.20
29453;DHT22;16424;50.956;5.320;2023-06-04T08:49:49;25.30;76.30
29453;DHT22;16424;50.956;5.320;2023-06-04T08:52:16;25.30;76.40
29453;DHT22;16424;50.956;5.320;2023-06-04T08:54:42;25.90;76.20
29453;DHT22;16424;50.956;5.320;2023-06-04T08:57:09;25.90;76.00
29453;DHT22;16424;50.956;5.320;2023-06-04T08:59:35;26.20;75.50
29453;DHT22;16424;50.956;5.320;2023-06-04T09:02:02;27.00;74.00
29453;DHT22;16424;50.956;5.320;2023-06-04T09:04:29;26.70;74.00
29453;DHT22;16424;50.956;5.320;2023-06-04T09:07:03;27.10;73.00
29453;DHT22;16424;50.956;5.320;2023-06-04T09:09:30;26.90;72.60
29453;DHT22;16424;50.956;5.320;2023-06-04T09:11:57;27.00;71.00
29453;DHT22;16424;50.956;5.320;2023-06-04T09:14:23;26.80;72.30
29453;DHT22;16424;50.956;5.320;2023-06-04T09:16:50;26.70;72.10
29453;DHT22;16424;50.956;5.320;2023-06-04T09:19:17;26.30;72.70
29453;DHT22;16424;50.956;5.320;2023-06-04T09:24:12;25.70;71.70
29453;DHT22;16424;50.956;5.320;2023-06-04T09:26:37;25.70;73.90
29453;DHT22;16424;50.956;5.320;2023-06-04T09:29:05;25.80;76.20
29453;DHT22;16424;50.956;5.320;2023-06-04T09:31:31;25.70;73.30
29453;DHT22;16424;50.956;5.320;2023-06-04T09:34:02;25.30;74.30
29453;DHT22;16424;50.956;5.320;2023-06-04T09:36:34;24.60;72.40
29453;DHT22;16424;50.956;5.320;2023-06-04T09:39:02;24.20;74.90
29453;DHT22;16424;50.956;5.320;2023-06-04T09:41:28;23.90;73.90
29453;DHT22;16424;50.956;5.320;2023-06-04T09:44:01;23.50;73.50
29453;DHT22;16424;50.956;5.320;2023-06-04T09:46:31;23.60;74.50
29453;DHT22;16424;50.956;5.320;2023-06-04T09:49:05;23.90;75.50
29453;DHT22;16424;50.956;5.320;2023-06-04T09:51:31;24.20;76.50
29453;DHT22;16424;50.956;5.320;2023-06-04T09:54:02;24.40;76.90
29453;DHT22;16424;50.956;5.320;2023-06-04T09:56:28;24.10;74.60
29453;DHT22;16424;50.956;5.320;2023-06-04T09:58:58;23.70;76.40
29453;DHT22;16424;50.956;5.320;2023-06-04T10:01:26;23.70;77.80
29453;DHT22;16424;50.956;5.320;2023-06-04T10:03:53;23.50;76.80
29453;DHT22;16424;50.956;5.320;2023-06-04T10:06:20;23.50;76.00
29453;DHT22;16424;50.956;5.320;2023-06-04T10:08:49;23.70;75.30
29453;DHT22;16424;50.956;5.320;2023-06-04T10:11:21;23.60;75.00
29453;DHT22;16424;50.956;5.320;2023-06-04T10:14:02;23.60;75.60
29453;DHT22;16424;50.956;5.320;2023-06-04T10:16:30;23.40;74.60
29453;DHT22;16424;50.956;5.320;2023-06-04T10:18:57;23.40;75.70
29453;DHT22;16424;50.956;5.320;2023-06-04T10:21:25;23.60;76.60
29453;DHT22;16424;50.956;5.320;2023-06-04T10:23:51;23.90;74.60
29453;DHT22;16424;50.956;5.320;2023-06-04T10:26:17;24.00;75.00
29453;DHT22;16424;50.956;5.320;2023-06-04T10:28:43;24.20;76.50
29453;DHT22;16424;50.956;5.320;2023-06-04T10:31:10;24.30;73.60
29453;DHT22;16424;50.956;5.320;2023-06-04T10:33:36;24.10;73.60
29453;DHT22;16424;50.956;5.320;2023-06-04T10:36:19;23.80;75.50
29453;DHT22;16424;50.956;5.320;2023-06-04T10:38:53;23.50;74.50
29453;DHT22;16424;50.956;5.320;2023-06-04T10:41:20;23.50;77.00
29453;DHT22;16424;50.956;5.320;2023-06-04T10:43:50;23.60;76.20
29453;DHT22;16424;50.956;5.320;2023-06-04T10:46:20;23.60;75.70
29453;DHT22;16424;50.956;5.320;2023-06-04T10:48:50;23.70;75.40
29453;DHT22;16424;50.956;5.320;2023-06-04T10:51:33;23.60;74.10
29453;DHT22;16424;50.956;5.320;2023-06-04T10:54:00;23.50;75.60
29453;DHT22;16424;50.956;5.320;2023-06-04T10:56:31;23.60;74.90
29453;DHT22;16424;50.956;5.320;2023-06-04T10:58:58;23.60;75.40
29453;DHT22;16424;50.956;5.320;2023-06-04T11:01:30;23.50;74.70
29453;DHT22;16424;50.956;5.320;2023-06-04T11:03:57;23.60;73.40
29453;DHT22;16424;50.956;5.320;2023-06-04T11:06:23;23.90;72.80
29453;DHT22;16424;50.956;5.320;2023-06-04T11:09:04;23.90;73.80
29453;DHT22;16424;50.956;5.320;2023-06-04T11:11:34;24.00;75.10
29453;DHT22;16424;50.956;5.320;2023-06-04T11:14:12;23.70;76.00
29453;DHT22;16424;50.956;5.320;2023-06-04T11:16:43;23.70;76.80
29453;DHT22;16424;50.956;5.320;2023-06-04T11:19:09;23.90;77.60
29453;DHT22;16424;50.956;5.320;2023-06-04T11:21:35;23.60;76.90
29453;DHT22;16424;50.956;5.320;2023-06-04T11:24:04;23.60;77.40
29453;DHT22;16424;50.956;5.320;2023-06-04T11:26:34;23.80;77.50
29453;DHT22;16424;50.956;5.320;2023-06-04T11:29:01;24.00;75.50
29453;DHT22;16424;50.956;5.320;2023-06-04T11:31:27;24.20;75.50
29453;DHT22;16424;50.956;5.320;2023-06-04T11:33:53;24.10;74.50
29453;DHT22;16424;50.956;5.320;2023-06-04T11:36:25;24.20;73.30
29453;DHT22;16424;50.956;5.320;2023-06-04T11:38:59;24.00;73.80
29453;DHT22;16424;50.956;5.320;2023-06-04T11:41:30;23.70;75.70
29453;DHT22;16424;50.956;5.320;2023-06-04T11:43:56;23.80;73.40
29453;DHT22;16424;50.956;5.320;2023-06-04T11:46:23;24.00;75.40
29453;DHT22;16424;50.956;5.320;2023-06-04T11:48:51;24.00;72.90
29453;DHT22;16424;50.956;5.320;2023-06-04T11:51:22;24.00;73.70
29453;DHT22;16424;50.956;5.320;2023-06-04T11:53:47;24.10;72.90
29453;DHT22;16424;50.956;5.320;2023-06-04T11:56:14;24.40;73.50
29453;DHT22;16424;50.956;5.320;2023-06-04T11:58:40;24.70;73.60
29453;DHT22;16424;50.956;5.320;2023-06-04T12:01:07;25.00;75.20
29453;DHT22;16424;50.956;5.320;2023-06-04T12:03:38;25.00;71.50
29453;DHT22;16424;50.956;5.320;2023-06-04T12:06:30;24.50;71.80
29453;DHT22;16424;50.956;5.320;2023-06-04T12:08:57;24.60;70.10
29453;DHT22;16424;50.956;5.320;2023-06-04T12:13:57;24.60;70.80
29453;DHT22;16424;50.956;5.320;2023-06-04T12:16:23;24.60;73.30
29453;DHT22;16424;50.956;5.320;2023-06-04T12:18:49;24.70;71.10
29453;DHT22;16424;50.956;5.320;2023-06-04T12:21:25;24.80;72.90
29453;DHT22;16424;50.956;5.320;2023-06-04T12:24:13;24.80;72.30
29453;DHT22;16424;50.956;5.320;2023-06-04T12:26:40;25.10;71.40
29453;DHT22;16424;50.956;5.320;2023-06-04T12:29:15;25.00;72.00
29453;DHT22;16424;50.956;5.320;2023-06-04T12:31:43;25.00;71.60
29453;DHT22;16424;50.956;5.320;2023-06-04T12:34:10;24.80;70.10
29453;DHT22;16424;50.956;5.320;2023-06-04T12:36:37;24.60;70.60
29453;DHT22;16424;50.956;5.320;2023-06-04T12:39:04;24.60;69.30
29453;DHT22;16424;50.956;5.320;2023-06-04T12:41:31;24.60;68.50
29453;DHT22;16424;50.956;5.320;2023-06-04T12:43:59;24.70;70.10
29453;DHT22;16424;50.956;5.320;2023-06-04T12:46:25;24.90;68.80
29453;DHT22;16424;50.956;5.320;2023-06-04T12:48:52;25.10;67.80
29453;DHT22;16424;50.956;5.320;2023-06-04T12:51:18;25.00;66.20
29453;DHT22;16424;50.956;5.320;2023-06-04T12:53:44;25.00;66.00
29453;DHT22;16424;50.956;5.320;2023-06-04T12:56:10;24.90;64.80
29453;DHT22;16424;50.956;5.320;2023-06-04T12:58:36;24.80;66.20
29453;DHT22;16424;50.956;5.320;2023-06-04T13:01:02;24.60;66.80
29453;DHT22;16424;50.956;5.320;2023-06-04T13:03:30;24.40;68.70
29453;DHT22;16424;50.956;5.320;2023-06-04T13:05:56;24.60;68.90
29453;DHT22;16424;50.956;5.320;2023-06-04T13:08:22;24.80;67.10
29453;DHT22;16424;50.956;5.320;2023-06-04T13:10:49;24.90;65.70
29453;DHT22;16424;50.956;5.320;2023-06-04T13:13:16;25.10;64.70
29453;DHT22;16424;50.956;5.320;2023-06-04T13:15:42;25.00;64.40
29453;DHT22;16424;50.956;5.320;2023-06-04T13:18:09;25.00;65.20
29453;DHT22;16424;50.956;5.320;2023-06-04T13:20:36;25.00;63.60
29453;DHT22;16424;50.956;5.320;2023-06-04T13:23:02;25.00;65.40
29453;DHT22;16424;50.956;5.320;2023-06-04T13:25:28;25.10;65.70
29453;DHT22;16424;50.956;5.320;2023-06-04T13:28:04;24.90;65.30
29453;DHT22;16424;50.956;5.320;2023-06-04T13:30:30;24.80;66.90
29453;DHT22;16424;50.956;5.320;2023-06-04T13:32:57;24.80;67.10
29453;DHT22;16424;50.956;5.320;2023-06-04T13:35:25;24.90;67.60
29453;DHT22;16424;50.956;5.320;2023-06-04T13:37:51;25.10;64.50
29453;DHT22;16424;50.956;5.320;2023-06-04T13:40:16;25.20;63.70
29453;DHT22;16424;50.956;5.320;2023-06-04T13:42:42;25.30;65.10
29453;DHT22;16424;50.956;5.320;2023-06-04T13:45:09;25.20;64.30
29453;DHT22;16424;50.956;5.320;2023-06-04T13:47:35;25.10;64.20
29453;DHT22;16424;50.956;5.320;2023-06-04T13:50:01;25.10;63.50
29453;DHT22;16424;50.956;5.320;2023-06-04T13:52:26;25.00;62.80
29453;DHT22;16424;50.956;5.320;2023-06-04T13:54:55;25.20;65.10
29453;DHT22;16424;50.956;5.320;2023-06-04T13:57:21;25.50;65.70
29453;DHT22;16424;50.956;5.320;2023-06-04T13:59:49;25.70;65.70
29453;DHT22;16424;50.956;5.320;2023-06-04T14:02:14;25.60;64.40
29453;DHT22;16424;50.956;5.320;2023-06-04T14:04:40;25.40;64.00
29453;DHT22;16424;50.956;5.320;2023-06-04T14:07:06;25.40;65.50
29453;DHT22;16424;50.956;5.320;2023-06-04T14:09:32;25.40;64.80
29453;DHT22;16424;50.956;5.320;2023-06-04T14:11:58;25.20;66.40
29453;DHT22;16424;50.956;5.320;2023-06-04T14:14:24;25.40;66.40
29453;DHT22;16424;50.956;5.320;2023-06-04T14:16:50;25.50;65.60
29453;DHT22;16424;50.956;5.320;2023-06-04T14:19:16;25.70;66.80
29453;DHT22;16424;50.956;5.320;2023-06-04T14:21:43;25.80;65.60
29453;DHT22;16424;50.956;5.320;2023-06-04T14:24:09;25.40;64.70
29453;DHT22;16424;50.956;5.320;2023-06-04T14:26:35;25.50;65.40
29453;DHT22;16424;50.956;5.320;2023-06-04T14:29:01;25.50;63.10
29453;DHT22;16424;50.956;5.320;2023-06-04T14:31:27;25.60;63.50
29453;DHT22;16424;50.956;5.320;2023-06-04T14:33:52;25.70;65.10
29453;DHT22;16424;50.956;5.320;2023-06-04T14:36:18;25.60;63.20
29453;DHT22;16424;50.956;5.320;2023-06-04T14:38:44;25.40;63.20
29453;DHT22;16424;50.956;5.320;2023-06-04T14:41:10;25.40;62.80
29453;DHT22;16424;50.956;5.320;2023-06-04T14:43:36;25.10;62.60
29453;DHT22;16424;50.956;5.320;2023-06-04T14:46:02;25.10;63.50
29453;DHT22;16424;50.956;5.320;2023-06-04T14:48:28;25.10;64.50
29453;DHT22;16424;50.956;5.320;2023-06-04T14:50:53;25.30;64.20
29453;DHT22;16424;50.956;5.320;2023-06-04T14:53:21;25.40;64.00
29453;DHT22;16424;50.956;5.320;2023-06-04T14:55:47;25.40;63.70
29453;DHT22;16424;50.956;5.320;2023-06-04T14:58:13;25.70;64.50
29453;DHT22;16424;50.956;5.320;2023-06-04T15:00:39;25.80;63.10
29453;DHT22;16424;50.956;5.320;2023-06-04T15:03:05;26.00;62.20
29453;DHT22;16424;50.956;5.320;2023-06-04T15:05:31;26.00;61.60
29453;DHT22;16424;50.956;5.320;2023-06-04T15:07:57;25.80;61.90
29453;DHT22;16424;50.956;5.320;2023-06-04T15:10:24;25.80;63.50
29453;DHT22;16424;50.956;5.320;2023-06-04T15:12:51;25.60;62.90
29453;DHT22;16424;50.956;5.320;2023-06-04T15:15:17;25.50;63.40
29453;DHT22;16424;50.956;5.320;2023-06-04T15:17:43;25.40;64.30
29453;DHT22;16424;50.956;5.320;2023-06-04T15:20:09;25.20;64.40
29453;DHT22;16424;50.956;5.320;2023-06-04T15:22:35;25.30;63.00
29453;DHT22;16424;50.956;5.320;2023-06-04T15:25:01;25.40;62.20
29453;DHT22;16424;50.956;5.320;2023-06-04T15:27:26;25.50;63.80
29453;DHT22;16424;50.956;5.320;2023-06-04T15:29:52;25.60;62.90
29453;DHT22;16424;50.956;5.320;2023-06-04T15:32:18;25.70;64.40
29453;DHT22;16424;50.956;5.320;2023-06-04T15:34:44;25.40;61.60
29453;DHT22;16424;50.956;5.320;2023-06-04T15:37:09;25.30;62.10
29453;DHT22;16424;50.956;5.320;2023-06-04T15:39:35;25.30;62.90